Buenos Aires, Argentina
Current Conditions -  °F | °C
As of 12:00 PM on Monday 24 Nov 2014 (Local Time) from SABE Reporting Station
Broken Clouds Broken Clouds  
Wind Chill: 22°   Ceiling: 8000
Heat Index: 22°   Visibility: 6mi
Dew Point: 16°   Wind: 6mph
Humidity: 69%   Direction: 320°NW
Pressure: 29.77"   Gusts: NA
Location:  34.61°S, 58.37°W
Report Text: SABE 241500Z 32005KT 260V020 9999FEW050TCU BKN080 22/16 Q1008
Loading
Personal Weather Stations






























Interactive Weather Map New forecast layout! Learn more

10-Day Weather Forecast

Advertisements
Track Severe Weather on mobile